Time;durP1;ratioP1;P1;durP2;ratioP2;P2;SDS_P1;SDS_P2;PMS_P1;PMS_P2;Temp;Humidity;BMP_temperature;BMP_pressure;BME280_temperature;BME280_humidity;BME280_pressure;Samples;Min_cycle;Max_cycle;Signal;HPM_P1;HPM_P2
2021/07/29 02:47:51;;;;;;;;;;;16.20;99.90;;;;;;5;36025726;41313199;-88
2021/07/29 02:51:10;;;;;;;;;;;16.20;99.90;;;;;;5;36015677;41269262;-88
2021/07/29 02:54:24;;;;;;;;;;;16.10;99.90;;;;;;5;36015904;41270969;-89
2021/07/29 02:57:42;;;;;;;;;;;16.10;99.90;;;;;;5;36018340;41271095;-89
2021/07/29 03:01:01;;;;;;;;;;;16.00;99.90;;;;;;5;36017376;41271197;-87
2021/07/29 03:04:24;;;;;;;;;;;16.00;99.90;;;;;;5;36017358;42022433;-88
2021/07/29 03:07:38;;;;;;;;;;;16.00;99.90;;;;;;5;36018573;41272574;-87
2021/07/29 03:10:58;;;;;;;;;;;15.90;99.90;;;;;;5;36018149;41270354;-88
2021/07/29 03:14:19;;;;;;;;;;;15.90;99.90;;;;;;5;36018606;41270332;-87
2021/07/29 03:17:38;;;;;;;;;;;15.90;99.90;;;;;;5;36019079;41272735;-87
2021/07/29 03:20:52;;;;;;;;;;;15.90;99.90;;;;;;5;36018737;41271924;-85
2021/07/29 03:24:10;;;;;;;;;;;15.90;99.90;;;;;;5;36019725;41272425;-86
2021/07/29 03:27:29;;;;;;;;;;;15.90;99.90;;;;;;5;36017146;41270509;-85
2021/07/29 03:30:50;;;;;;;;;;;15.90;99.90;;;;;;5;36018395;41271842;-86
2021/07/29 03:34:04;;;;;;;;;;;15.90;99.90;;;;;;5;36019745;41270616;-86
2021/07/29 03:37:23;;;;;;;;;;;15.80;99.90;;;;;;5;36018160;42022494;-87
2021/07/29 03:40:42;;;;;;;;;;;15.80;99.90;;;;;;5;36017136;41270801;-86
2021/07/29 03:44:02;;;;;;;;;;;15.80;99.90;;;;;;5;36018378;41272107;-85
2021/07/29 03:47:16;;;;;;;;;;;15.80;99.90;;;;;;5;36018145;41272639;-86
2021/07/29 03:50:33;;;;;;;;;;;15.80;99.90;;;;;;5;36017796;41272188;-86
2021/07/29 03:53:53;;;;;;;;;;;15.80;99.90;;;;;;5;36018226;41271665;-86
2021/07/29 03:57:14;;;;;;;;;;;16.00;99.90;;;;;;5;36018760;41271450;-87
2021/07/29 04:00:29;;;;;;;;;;;16.20;99.90;;;;;;5;36015345;41272784;-89
2021/07/29 04:03:47;;;;;;;;;;;16.40;99.90;;;;;;5;36023248;41276193;-86
2021/07/29 04:07:07;;;;;;;;;;;16.60;99.90;;;;;;5;36019217;41272731;-86
2021/07/29 04:10:27;;;;;;;;;;;16.60;99.90;;;;;;5;36018346;42021981;-87
2021/07/29 04:13:42;;;;;;;;;;;16.70;99.90;;;;;;5;36018840;41272346;-86
2021/07/29 04:16:59;;;;;;;;;;;16.70;99.90;;;;;;5;36018714;41271668;-85
2021/07/29 04:20:18;;;;;;;;;;;16.70;99.90;;;;;;5;36018139;41272227;-85
2021/07/29 04:23:38;;;;;;;;;;;16.70;99.90;;;;;;5;36019209;41271842;-86
2021/07/29 04:26:52;;;;;;;;;;;16.60;99.90;;;;;;5;36017401;41271830;-85
2021/07/29 04:30:09;;;;;;;;;;;16.50;99.90;;;;;;5;36018061;41271507;-84
2021/07/29 04:33:29;;;;;;;;;;;16.40;99.90;;;;;;5;36019765;41271986;-86
2021/07/29 04:36:48;;;;;;;;;;;16.40;99.90;;;;;;5;36018988;41271731;-85
2021/07/29 04:40:03;;;;;;;;;;;16.40;99.90;;;;;;5;36017388;41271820;-86
2021/07/29 04:43:21;;;;;;;;;;;16.30;99.90;;;;;;5;36018369;42021560;-85
2021/07/29 04:46:42;;;;;;;;;;;16.40;99.90;;;;;;5;36018662;41271670;-86
2021/07/29 04:50:01;;;;;;;;;;;16.40;99.90;;;;;;5;36019861;41270864;-85
2021/07/29 04:53:15;;;;;;;;;;;16.60;99.90;;;;;;5;36018640;41271612;-85
2021/07/29 04:56:32;;;;;;;;;;;16.60;99.90;;;;;;5;36017699;41271795;-85
2021/07/29 04:59:52;;;;;;;;;;;16.60;99.90;;;;;;5;36018021;41272385;-86
2021/07/29 05:03:11;;;;;;;;;;;16.60;99.90;;;;;;5;36017979;41272582;-84
2021/07/29 05:06:25;;;;;;;;;;;16.60;99.90;;;;;;5;36018054;41270820;-88
2021/07/29 05:09:42;;;;;;;;;;;16.70;99.90;;;;;;5;36018895;41271483;-86
2021/07/29 05:13:02;;;;;;;;;;;16.90;99.90;;;;;;5;36017629;41272382;-86
2021/07/29 05:16:23;;;;;;;;;;;17.10;99.90;;;;;;5;36018401;42021492;-86
2021/07/29 05:19:37;;;;;;;;;;;17.40;99.90;;;;;;5;36017859;41269494;-86
2021/07/29 05:22:54;;;;;;;;;;;17.50;99.90;;;;;;5;36019592;41273182;-88
2021/07/29 05:26:15;;;;;;;;;;;17.60;99.90;;;;;;5;36018999;41272880;-87
2021/07/29 05:29:34;;;;;;;;;;;17.70;99.90;;;;;;5;36018072;41272258;-87
2021/07/29 05:32:48;;;;;;;;;;;17.80;99.90;;;;;;5;36017646;41272566;-87
2021/07/29 05:36:06;;;;;;;;;;;17.80;99.90;;;;;;5;36018670;41271723;-86
2021/07/29 05:39:26;;;;;;;;;;;17.90;99.90;;;;;;5;36019456;41271221;-86
2021/07/29 05:42:45;;;;;;;;;;;18.00;99.90;;;;;;5;36018003;41271727;-87
2021/07/29 05:45:59;;;;;;;;;;;18.00;99.90;;;;;;5;36018375;41271510;-89
2021/07/29 05:49:18;;;;;;;;;;;18.00;99.90;;;;;;5;36016968;42021821;-88
2021/07/29 05:52:37;;;;;;;;;;;18.10;99.90;;;;;;5;36018533;41272155;-88
2021/07/29 05:55:57;;;;;;;;;;;18.20;99.90;;;;;;5;36018808;41270648;-87
2021/07/29 05:59:11;;;;;;;;;;;18.40;99.90;;;;;;5;36015688;41270789;-87
2021/07/29 06:02:28;;;;;;;;;;;18.50;99.90;;;;;;5;36016008;41271138;-86
2021/07/29 06:05:48;;;;;;;;;;;18.70;99.90;;;;;;5;36015906;41269197;-89
2021/07/29 06:09:07;;;;;;;;;;;18.80;99.90;;;;;;5;36016044;41269404;-88
2021/07/29 06:12:24;;;;;;;;;;;18.80;99.90;;;;;;5;36018932;41270795;-88
2021/07/29 06:15:42;;;;;;;;;;;18.90;99.90;;;;;;5;36017566;41269134;-87
2021/07/29 06:19:06;;;;;;;;;;;19.10;99.50;;;;;;5;36015300;41268882;-88
2021/07/29 06:22:27;;;;;;;;;;;19.00;99.40;;;;;;5;36017334;42021136;-87
2021/07/29 06:25:41;;;;;;;;;;;19.10;99.80;;;;;;5;36016881;41270991;-87
2021/07/29 06:28:58;;;;;;;;;;;19.10;99.60;;;;;;5;36018328;41271260;-88
2021/07/29 06:32:18;;;;;;;;;;;19.20;99.80;;;;;;5;36017226;41271536;-87
2021/07/29 06:35:37;;;;;;;;;;;19.20;99.50;;;;;;5;36017766;41270353;-88
2021/07/29 06:38:51;;;;;;;;;;;19.20;99.90;;;;;;5;36019279;41271618;-89
2021/07/29 06:42:08;;;;;;;;;;;19.20;98.70;;;;;;5;36019185;41271421;-88
2021/07/29 06:45:28;;;;;;;;;;;19.20;98.70;;;;;;5;36017841;41271406;-88
2021/07/29 06:48:48;;;;;;;;;;;19.30;98.90;;;;;;5;36017348;41271938;-87
2021/07/29 06:52:02;;;;;;;;;;;19.70;97.90;;;;;;5;36018466;41271665;-87
2021/07/29 06:55:21;;;;;;;;;;;19.90;96.70;;;;;;5;36019006;42022288;-88
2021/07/29 06:58:40;;;;;;;;;;;20.30;95.70;;;;;;5;36018121;41272038;-86
2021/07/29 07:02:00;;;;;;;;;;;20.50;94.80;;;;;;5;36019188;41271373;-88
2021/07/29 07:05:14;;;;;;;;;;;20.80;94.00;;;;;;5;36019676;41270736;-88
2021/07/29 07:08:31;;;;;;;;;;;21.00;93.00;;;;;;5;36018318;41271893;-87
2021/07/29 07:11:51;;;;;;;;;;;21.20;92.60;;;;;;5;36016320;41270449;-88
2021/07/29 07:15:10;;;;;;;;;;;21.30;92.60;;;;;;5;36014089;41268834;-89
2021/07/29 07:18:24;;;;;;;;;;;21.40;92.60;;;;;;5;36016892;41267588;-89
2021/07/29 07:21:42;;;;;;;;;;;21.60;92.40;;;;;;5;36014908;41268888;-89
2021/07/29 07:25:01;;;;;;;;;;;21.90;91.70;;;;;;5;36014446;41268229;-87
2021/07/29 07:28:22;;;;;;;;;;;22.10;90.40;;;;;;5;36017841;42021570;-87
2021/07/29 07:31:36;;;;;;;;;;;22.40;91.10;;;;;;5;36018193;41270392;-87
2021/07/29 07:34:54;;;;;;;;;;;22.70;90.20;;;;;;5;36018387;41271436;-87
2021/07/29 07:38:13;;;;;;;;;;;22.90;88.60;;;;;;5;36019244;41271810;-86
2021/07/29 07:41:32;;;;;;;;;;;23.10;89.00;;;;;;5;36018707;41271216;-88
2021/07/29 07:44:47;;;;;;;;;;;23.20;87.20;;;;;;5;36017620;41271387;-86
2021/07/29 07:48:04;;;;;;;;;;;23.40;87.10;;;;;;5;36018897;41271362;-88
2021/07/29 07:51:24;;;;;;;;;;;23.60;87.60;;;;;;5;36017508;41270835;-87
2021/07/29 07:54:43;;;;;;;;;;;23.70;83.20;;;;;;5;36018901;41271269;-86
2021/07/29 07:57:57;;;;;;;;;;;23.70;83.80;;;;;;5;36017424;41270279;-86
2021/07/29 08:01:16;;;;;;;;;;;23.80;84.30;;;;;;5;36014308;42021917;-89
2021/07/29 08:04:35;;;;;;;;;;;24.10;82.30;;;;;;5;36014511;41269193;-88
2021/07/29 08:08:32;;;;;;;;;;;24.10;82.40;;;;;;5;36017973;41270637;-89
2021/07/29 08:11:46;;;;;;;;;;;24.30;81.20;;;;;;5;36015551;41267464;-89
2021/07/29 08:15:03;;;;;;;;;;;24.30;81.80;;;;;;5;36016631;41267018;-88
2021/07/29 08:18:23;;;;;;;;;;;24.30;82.40;;;;;;5;36017628;41270754;-87
2021/07/29 08:21:42;;;;;;;;;;;24.60;80.60;;;;;;5;36018848;41271761;-88
2021/07/29 08:24:56;;;;;;;;;;;24.90;78.80;;;;;;5;36017750;41270882;-89
2021/07/29 08:28:14;;;;;;;;;;;25.30;77.20;;;;;;5;36018391;41269564;-87
2021/07/29 08:31:33;;;;;;;;;;;25.30;76.30;;;;;;5;36017150;41270482;-88
2021/07/29 08:34:55;;;;;;;;;;;25.90;73.50;;;;;;5;36019798;42022331;-88
2021/07/29 08:38:09;;;;;;;;;;;26.00;73.30;;;;;;5;36018479;41269675;-88
2021/07/29 08:41:26;;;;;;;;;;;26.50;69.80;;;;;;5;36016437;41271866;-88
2021/07/29 08:44:45;;;;;;;;;;;27.20;72.70;;;;;;5;36017835;41270378;-89
2021/07/29 08:48:06;;;;;;;;;;;27.80;67.30;;;;;;5;36017354;41270842;-87
2021/07/29 08:51:24;;;;;;;;;;;28.80;64.60;;;;;;5;36018851;41270160;-87
2021/07/29 08:54:42;;;;;;;;;;;30.00;63.20;;;;;;5;36016550;41271829;-87
2021/07/29 08:58:02;;;;;;;;;;;30.70;58.70;;;;;;5;36016714;41270232;-89
2021/07/29 09:01:37;;;;;;;;;;;30.50;57.70;;;;;;5;36016493;41272455;-85
2021/07/29 09:05:04;;;;;;;;;;;32.50;56.00;;;;;;5;36018020;41271516;-87
2021/07/29 09:08:23;;;;;;;;;;;34.90;53.50;;;;;;5;36019071;42022225;-88
2021/07/29 09:11:42;;;;;;;;;;;35.20;49.80;;;;;;5;36018695;41272790;-88
2021/07/29 09:15:16;;;;;;;;;;;34.70;48.80;;;;;;5;36018035;41271489;-88
2021/07/29 09:18:37;;;;;;;;;;;36.00;47.40;;;;;;5;36018757;41271821;-88
2021/07/29 09:22:13;;;;;;;;;;;38.00;43.80;;;;;;5;36019579;41271910;-88
2021/07/29 09:25:33;;;;;;;;;;;37.80;42.50;;;;;;5;36019096;41271967;-88
2021/07/29 09:28:52;;;;;;;;;;;38.90;43.90;;;;;;5;36018946;41271453;-88
2021/07/29 09:32:10;;;;;;;;;;;40.90;40.10;;;;;;5;36019169;41271217;-88
2021/07/29 09:35:37;;;;;;;;;;;41.80;40.00;;;;;;5;36018840;41271594;-87
2021/07/29 09:39:15;;;;;;;;;;;43.00;37.70;;;;;;5;36017855;41271433;-89
2021/07/29 09:42:37;;;;;;;;;;;44.40;35.50;;;;;;5;36017910;42020929;-87
2021/07/29 09:45:52;;;;;;;;;;;42.80;34.90;;;;;;5;36020228;41271438;-85
2021/07/29 09:49:10;;;;;;;;;;;40.90;37.30;;;;;;5;36017902;41270994;-87
2021/07/29 09:52:31;;;;;;;;;;;41.70;37.20;;;;;;5;36019305;41270884;-89
2021/07/29 09:55:50;;;;;;;;;;;43.20;36.20;;;;;;5;36017035;41271004;-88
2021/07/29 09:59:04;;;;;;;;;;;44.10;34.80;;;;;;5;36018561;41271688;-89
2021/07/29 10:02:23;;;;;;;;;;;45.40;33.80;;;;;;5;36017915;41271463;-89
2021/07/29 10:05:42;;;;;;;;;;;46.90;33.00;;;;;;5;36019728;41271799;-88
2021/07/29 10:09:12;;;;;;;;;;;47.20;32.50;;;;;;5;36018443;41272122;-89
2021/07/29 10:12:29;;;;;;;;;;;46.90;32.20;;;;;;5;36018285;41272359;-89
2021/07/29 10:15:47;;;;;;;;;;;47.10;32.20;;;;;;5;36019501;42022819;-85
2021/07/29 10:19:07;;;;;;;;;;;47.20;31.20;;;;;;5;36019868;41270207;-89
2021/07/29 10:22:26;;;;;;;;;;;45.40;33.90;;;;;;5;36018570;41270560;-89
2021/07/29 10:25:52;;;;;;;;;;;46.70;31.60;;;;;;5;36017455;41271620;-88
2021/07/29 10:29:19;;;;;;;;;;;48.00;30.80;;;;;;5;36019569;41270844;-90
2021/07/29 10:32:48;;;;;;;;;;;48.90;30.50;;;;;;5;36017873;41270869;-88
2021/07/29 10:36:08;;;;;;;;;;;49.50;30.90;;;;;;5;36017740;41269206;-89
2021/07/29 10:39:23;;;;;;;;;;;49.70;29.70;;;;;;5;36018050;41270484;-89
2021/07/29 10:42:40;;;;;;;;;;;49.80;29.30;;;;;;5;36019280;41273202;-89
2021/07/29 10:46:02;;;;;;;;;;;49.80;29.70;;;;;;5;36018758;41271403;-88
2021/07/29 10:49:41;;;;;;;;;;;49.70;29.70;;;;;;5;36016709;42019799;-89
2021/07/29 10:52:56;;;;;;;;;;;49.80;29.50;;;;;;5;36018843;41272091;-87
2021/07/29 10:56:14;;;;;;;;;;;49.20;29.60;;;;;;5;36017198;41269608;-88
2021/07/29 10:59:33;;;;;;;;;;;48.80;29.70;;;;;;5;36018180;41271042;-89
2021/07/29 11:02:55;;;;;;;;;;;49.40;29.90;;;;;;5;36018117;41272073;-88
2021/07/29 11:06:12;;;;;;;;;;;49.60;29.60;;;;;;5;36017804;41270425;-88
2021/07/29 11:09:35;;;;;;;;;;;49.80;29.60;;;;;;5;36018522;41270892;-89
2021/07/29 11:12:54;;;;;;;;;;;49.90;29.40;;;;;;5;36018943;41271889;-88
2021/07/29 11:16:14;;;;;;;;;;;49.90;29.10;;;;;;5;36017647;41271551;-89
2021/07/29 11:19:29;;;;;;;;;;;49.60;28.90;;;;;;5;36016646;41272067;-88
2021/07/29 11:22:47;;;;;;;;;;;49.50;29.50;;;;;;5;36019987;42022011;-87
2021/07/29 11:26:07;;;;;;;;;;;49.20;29.60;;;;;;5;36018214;41272581;-88
2021/07/29 11:29:27;;;;;;;;;;;49.30;29.30;;;;;;5;36017669;41271351;-88
2021/07/29 11:32:43;;;;;;;;;;;49.40;29.10;;;;;;5;36019745;41271211;-88
2021/07/29 11:36:09;;;;;;;;;;;49.50;29.60;;;;;;5;36019148;41271680;-89
2021/07/29 11:39:35;;;;;;;;;;;49.70;28.90;;;;;;5;36019347;41273158;-86
2021/07/29 11:42:55;;;;;;;;;;;49.10;29.20;;;;;;5;36017590;41271158;-91
2021/07/29 11:46:10;;;;;;;;;;;48.80;29.40;;;;;;5;36019333;41271521;-89
2021/07/29 11:49:28;;;;;;;;;;;48.80;29.50;;;;;;5;36019165;41272663;-88
2021/07/29 11:52:51;;;;;;;;;;;48.80;29.50;;;;;;5;36017367;41270186;-88
2021/07/29 11:56:12;;;;;;;;;;;48.90;29.60;;;;;;5;36019535;42021756;-87
2021/07/29 11:59:43;;;;;;;;;;;48.40;29.20;;;;;;5;36019489;41270746;-88
2021/07/29 12:03:01;;;;;;;;;;;48.30;30.30;;;;;;5;36018390;41269918;-88
2021/07/29 12:06:21;;;;;;;;;;;48.00;29.70;;;;;;5;36016140;41270772;-88
2021/07/29 12:09:44;;;;;;;;;;;48.10;30.20;;;;;;5;36016992;41271104;-87
2021/07/29 12:12:59;;;;;;;;;;;47.60;30.10;;;;;;5;36018769;41270735;-87
2021/07/29 12:16:16;;;;;;;;;;;47.00;30.00;;;;;;5;36019921;41271573;-88
2021/07/29 12:19:53;;;;;;;;;;;46.40;31.20;;;;;;5;36018511;41272112;-87
2021/07/29 12:23:13;;;;;;;;;;;45.60;31.00;;;;;;5;36017954;41271734;-88
2021/07/29 12:26:27;;;;;;;;;;;44.80;32.00;;;;;;5;36018679;41271615;-88
2021/07/29 12:29:46;;;;;;;;;;;45.10;31.90;;;;;;5;36018549;42021818;-88
2021/07/29 12:33:07;;;;;;;;;;;44.50;32.00;;;;;;5;36019512;41272248;-87
2021/07/29 12:36:46;;;;;;;;;;;44.60;31.60;;;;;;5;36017966;41271420;-89
2021/07/29 12:40:00;;;;;;;;;;;44.30;32.40;;;;;;5;36019522;41271555;-87
2021/07/29 12:43:19;;;;;;;;;;;44.50;31.90;;;;;;5;36017864;41270614;-88
2021/07/29 12:46:38;;;;;;;;;;;44.30;32.20;;;;;;5;36018991;41272564;-88
2021/07/29 12:49:58;;;;;;;;;;;44.50;32.40;;;;;;5;36019483;41272157;-89
2021/07/29 12:53:13;;;;;;;;;;;44.40;32.90;;;;;;5;36018948;41270927;-90
2021/07/29 12:56:31;;;;;;;;;;;43.90;32.90;;;;;;5;36015516;41267463;-90
2021/07/29 12:59:50;;;;;;;;;;;43.60;32.50;;;;;;5;36013674;41268529;-90
2021/07/29 13:03:31;;;;;;;;;;;43.40;34.20;;;;;;5;36014440;42016610;-90
2021/07/29 13:06:45;;;;;;;;;;;43.20;33.40;;;;;;5;36015663;41267117;-91
2021/07/29 13:10:03;;;;;;;;;;;43.00;34.20;;;;;;5;36018896;41271305;-88
2021/07/29 13:13:25;;;;;;;;;;;42.70;34.00;;;;;;5;36017501;41272024;-88
2021/07/29 13:16:45;;;;;;;;;;;42.80;33.80;;;;;;5;36019738;41271425;-89
2021/07/29 13:20:02;;;;;;;;;;;42.50;33.50;;;;;;5;36019184;41270821;-88
2021/07/29 13:23:19;;;;;;;;;;;41.70;34.30;;;;;;5;36017909;41271292;-90
2021/07/29 13:26:39;;;;;;;;;;;41.10;34.70;;;;;;5;36014808;41267059;-89
2021/07/29 13:29:58;;;;;;;;;;;41.00;34.60;;;;;;5;36014080;41266493;-90
2021/07/29 13:33:12;;;;;;;;;;;41.00;35.70;;;;;;5;36013786;41271528;-89
2021/07/29 13:36:31;;;;;;;;;;;41.20;35.80;;;;;;5;36018526;42021105;-89
2021/07/29 13:39:50;;;;;;;;;;;41.10;35.70;;;;;;5;36014589;41267683;-88
2021/07/29 13:43:10;;;;;;;;;;;40.70;35.80;;;;;;5;36016552;41268493;-89
2021/07/29 13:46:24;;;;;;;;;;;40.30;35.80;;;;;;5;36018267;41271098;-88
2021/07/29 13:49:41;;;;;;;;;;;40.20;35.80;;;;;;5;36017187;41270597;-88
2021/07/29 13:53:01;;;;;;;;;;;40.00;35.80;;;;;;5;36017614;41271888;-88
2021/07/29 13:56:22;;;;;;;;;;;38.60;37.50;;;;;;5;36018413;41272005;-88
2021/07/29 13:59:36;;;;;;;;;;;37.20;38.50;;;;;;5;36017886;41270842;-88
2021/07/29 14:02:53;;;;;;;;;;;36.60;39.60;;;;;;5;36017726;41271126;-88
2021/07/29 14:06:12;;;;;;;;;;;36.00;40.20;;;;;;5;36018218;41271522;-88
2021/07/29 14:09:33;;;;;;;;;;;35.70;41.50;;;;;;5;36018980;42022602;-88
2021/07/29 14:12:48;;;;;;;;;;;36.10;41.50;;;;;;5;36020081;41271943;-88
2021/07/29 14:16:05;;;;;;;;;;;36.30;40.40;;;;;;5;36018034;41271572;-90
2021/07/29 14:19:37;;;;;;;;;;;36.30;41.40;;;;;;5;36019007;41271640;-88
2021/07/29 14:26:14;;;;;;;;;;;36.70;40.10;;;;;;5;36018265;41272641;-88
2021/07/29 14:29:31;;;;;;;;;;;36.50;40.00;;;;;;5;36018922;41270577;-88
2021/07/29 14:32:51;;;;;;;;;;;35.80;41.60;;;;;;5;36018411;41271770;-88
2021/07/29 14:36:11;;;;;;;;;;;35.90;40.90;;;;;;5;36017638;41271545;-88
2021/07/29 14:39:25;;;;;;;;;;;35.60;42.30;;;;;;5;36018753;41271074;-88
2021/07/29 14:42:44;;;;;;;;;;;35.40;41.50;;;;;;5;36019494;42020099;-88
2021/07/29 14:49:43;;;;;;;;;;;35.00;42.80;;;;;;5;36020011;41271970;-88
2021/07/29 14:52:59;;;;;;;;;;;35.00;42.60;;;;;;5;36018696;41272568;-87
2021/07/29 14:56:27;;;;;;;;;;;34.70;42.00;;;;;;5;36019336;41270129;-88
2021/07/29 16:08:08;;;;;;;;;;;30.40;50.20;;;;;;5;36018021;41271695;-89
2021/07/29 16:11:29;;;;;;;;;;;30.20;50.00;;;;;;5;36019397;41270936;-87
2021/07/29 16:14:48;;;;;;;;;;;30.00;50.90;;;;;;5;36019410;41269537;-88
2021/07/29 16:18:02;;;;;;;;;;;29.80;51.20;;;;;;5;36018307;41269955;-88
2021/07/29 16:21:19;;;;;;;;;;;29.40;51.40;;;;;;5;36018000;41271506;-88
2021/07/29 16:24:39;;;;;;;;;;;29.20;52.30;;;;;;5;36018688;41270212;-89
2021/07/29 16:27:59;;;;;;;;;;;29.10;52.60;;;;;;5;36016905;42018865;-88
2021/07/29 16:31:14;;;;;;;;;;;29.00;52.50;;;;;;5;36019227;41272373;-88
2021/07/29 16:34:33;;;;;;;;;;;28.90;53.30;;;;;;5;36017662;41270371;-88
2021/07/29 16:37:53;;;;;;;;;;;28.90;54.20;;;;;;5;36018704;41273209;-88
2021/07/29 16:41:13;;;;;;;;;;;28.80;52.20;;;;;;5;36018120;41271105;-89
2021/07/29 16:44:28;;;;;;;;;;;28.70;53.40;;;;;;5;36016935;41271760;-89
2021/07/29 16:47:45;;;;;;;;;;;28.50;53.10;;;;;;5;36018300;41270824;-88
2021/07/29 16:51:04;;;;;;;;;;;28.30;52.90;;;;;;5;36016769;41271421;-88
2021/07/29 16:54:24;;;;;;;;;;;28.30;54.30;;;;;;5;36017795;41272472;-89
2021/07/29 16:57:38;;;;;;;;;;;28.20;55.00;;;;;;5;36018971;41271114;-88
2021/07/29 17:00:56;;;;;;;;;;;28.10;55.10;;;;;;5;36017903;42020272;-86
2021/07/29 17:04:16;;;;;;;;;;;27.90;53.80;;;;;;5;36017507;41270377;-89
2021/07/29 17:07:35;;;;;;;;;;;27.80;54.60;;;;;;5;36016568;41270272;-87
2021/07/29 17:10:49;;;;;;;;;;;27.60;55.20;;;;;;5;36017064;41270665;-88
2021/07/29 17:14:07;;;;;;;;;;;27.50;55.70;;;;;;5;36017160;41271287;-89
2021/07/29 17:17:26;;;;;;;;;;;27.40;55.80;;;;;;5;36017105;41270812;-87
2021/07/29 17:20:46;;;;;;;;;;;27.30;55.50;;;;;;5;36018011;41272225;-87
2021/07/29 17:24:00;;;;;;;;;;;27.10;57.00;;;;;;5;36017557;41271142;-87
2021/07/29 17:27:17;;;;;;;;;;;27.00;57.00;;;;;;5;36016878;41271262;-87
2021/07/29 17:30:36;;;;;;;;;;;26.80;57.50;;;;;;5;36019904;41272462;-89
2021/07/29 17:33:57;;;;;;;;;;;26.70;57.30;;;;;;5;36017270;42019674;-88
2021/07/29 17:37:11;;;;;;;;;;;26.60;56.80;;;;;;5;36016400;41271719;-87
2021/07/29 17:40:28;;;;;;;;;;;26.50;57.30;;;;;;5;36019125;41271575;-89
2021/07/29 17:43:48;;;;;;;;;;;26.40;57.70;;;;;;5;36018393;41270888;-87
2021/07/29 17:47:10;;;;;;;;;;;26.20;57.60;;;;;;5;36019520;41270675;-88
2021/07/29 17:50:24;;;;;;;;;;;26.10;58.70;;;;;;5;36017563;41271096;-87
2021/07/29 17:53:42;;;;;;;;;;;26.10;59.30;;;;;;5;36018064;41270199;-88
2021/07/29 17:57:02;;;;;;;;;;;26.00;60.00;;;;;;5;36017031;41271429;-88
2021/07/29 18:00:22;;;;;;;;;;;25.80;59.30;;;;;;5;36018252;41270774;-88
2021/07/29 18:03:36;;;;;;;;;;;25.70;60.10;;;;;;5;36019078;41272225;-88
2021/07/29 18:06:55;;;;;;;;;;;25.60;60.30;;;;;;5;36017213;42021211;-86
2021/07/29 18:10:14;;;;;;;;;;;25.50;60.60;;;;;;5;36018572;41271687;-87
2021/07/29 18:13:33;;;;;;;;;;;25.30;60.50;;;;;;5;36017801;41269777;-88
2021/07/29 18:16:48;;;;;;;;;;;25.20;61.90;;;;;;5;36018644;41269936;-87
2021/07/29 18:20:05;;;;;;;;;;;25.10;62.60;;;;;;5;36018680;41271241;-88
2021/07/29 18:23:24;;;;;;;;;;;25.00;62.70;;;;;;5;36018141;41271257;-87
2021/07/29 18:26:44;;;;;;;;;;;24.80;63.40;;;;;;5;36018329;41270634;-88
2021/07/29 18:29:59;;;;;;;;;;;24.60;64.70;;;;;;5;36013704;41266712;-90
2021/07/29 18:33:16;;;;;;;;;;;24.50;64.70;;;;;;5;36014890;41267212;-87
2021/07/29 18:36:35;;;;;;;;;;;24.30;65.60;;;;;;5;36014650;41266574;-88
2021/07/29 18:39:56;;;;;;;;;;;24.10;67.20;;;;;;5;36014274;42016513;-90
2021/07/29 18:43:11;;;;;;;;;;;23.90;68.00;;;;;;5;36014301;41268825;-88
2021/07/29 18:46:28;;;;;;;;;;;23.70;69.10;;;;;;5;36017400;41270307;-88
2021/07/29 18:49:47;;;;;;;;;;;23.50;70.30;;;;;;5;36017752;41270690;-88
2021/07/29 18:53:06;;;;;;;;;;;23.30;70.60;;;;;;5;36018066;41270513;-86
2021/07/29 18:56:21;;;;;;;;;;;23.10;71.70;;;;;;5;36017082;41271487;-88
2021/07/29 18:59:38;;;;;;;;;;;23.00;72.30;;;;;;5;36018595;41270298;-89
2021/07/29 19:02:57;;;;;;;;;;;22.80;73.30;;;;;;5;36015278;41268985;-89
2021/07/29 19:06:17;;;;;;;;;;;22.60;74.20;;;;;;5;36016480;41267941;-89
2021/07/29 19:09:31;;;;;;;;;;;22.40;74.10;;;;;;5;36015854;41267565;-85
2021/07/29 19:12:50;;;;;;;;;;;22.30;75.00;;;;;;5;36016562;42017509;-87
2021/07/29 19:16:09;;;;;;;;;;;22.20;75.20;;;;;;5;36015566;41268448;-88
2021/07/29 19:19:30;;;;;;;;;;;22.00;75.20;;;;;;5;36015759;41268038;-88
2021/07/29 19:22:45;;;;;;;;;;;21.90;76.50;;;;;;5;36015824;41267662;-89
2021/07/29 19:26:03;;;;;;;;;;;21.70;76.70;;;;;;5;36016254;41269211;-88
2021/07/29 19:29:22;;;;;;;;;;;21.60;77.60;;;;;;5;36016746;41270247;-88
2021/07/29 19:32:42;;;;;;;;;;;21.50;77.30;;;;;;5;36016986;41270299;-86
2021/07/29 19:35:58;;;;;;;;;;;21.40;77.70;;;;;;5;36017868;41271069;-86
2021/07/29 19:39:15;;;;;;;;;;;21.30;79.00;;;;;;5;36018364;41271949;-85
2021/07/29 19:42:34;;;;;;;;;;;21.30;79.90;;;;;;5;36018280;41272632;-86
2021/07/29 19:45:55;;;;;;;;;;;21.20;80.60;;;;;;5;36018906;42021999;-86
2021/07/29 19:49:10;;;;;;;;;;;21.10;80.90;;;;;;5;36017150;41272188;-87
2021/07/29 19:52:27;;;;;;;;;;;21.00;82.60;;;;;;5;36017354;41272676;-85
2021/07/29 19:55:46;;;;;;;;;;;20.80;85.00;;;;;;5;36016819;41271484;-88
2021/07/29 19:59:06;;;;;;;;;;;20.70;85.40;;;;;;5;36019245;41270989;-87
2021/07/29 20:02:20;;;;;;;;;;;20.60;85.90;;;;;;5;36017109;41270724;-88
2021/07/29 20:05:37;;;;;;;;;;;20.60;86.90;;;;;;5;36017971;41271336;-88
2021/07/29 20:08:57;;;;;;;;;;;20.60;87.00;;;;;;5;36017338;41271153;-87
2021/07/29 20:12:16;;;;;;;;;;;20.50;87.30;;;;;;5;36017475;41271370;-88
2021/07/29 20:15:30;;;;;;;;;;;20.40;88.50;;;;;;5;36018936;41271880;-87
2021/07/29 20:18:49;;;;;;;;;;;20.40;88.70;;;;;;5;36019370;42021755;-87
2021/07/29 20:22:08;;;;;;;;;;;20.40;89.00;;;;;;5;36018339;41272779;-86
2021/07/29 20:25:28;;;;;;;;;;;20.30;89.60;;;;;;5;36018153;41271782;-87
2021/07/29 20:28:42;;;;;;;;;;;20.20;90.10;;;;;;5;36017986;41271421;-87
2021/07/29 20:32:00;;;;;;;;;;;20.10;90.70;;;;;;5;36018029;41272311;-86
2021/07/29 20:35:20;;;;;;;;;;;20.00;91.00;;;;;;5;36018061;41271893;-86
2021/07/29 20:38:40;;;;;;;;;;;20.00;91.10;;;;;;5;36018442;41271318;-87
2021/07/29 20:41:54;;;;;;;;;;;20.00;91.40;;;;;;5;36017269;41271689;-88
2021/07/29 20:45:11;;;;;;;;;;;20.00;91.80;;;;;;5;36018288;41270728;-88
2021/07/29 20:48:30;;;;;;;;;;;19.90;92.30;;;;;;5;36019725;41272401;-87
2021/07/29 20:51:52;;;;;;;;;;;19.90;92.80;;;;;;5;36018690;42023008;-87
2021/07/29 20:55:10;;;;;;;;;;;19.80;92.80;;;;;;5;36017362;41271733;-86
2021/07/29 20:58:27;;;;;;;;;;;19.80;92.80;;;;;;5;36017500;41271109;-88
2021/07/29 21:01:46;;;;;;;;;;;19.80;93.40;;;;;;5;36016266;41272544;-86
2021/07/29 21:05:06;;;;;;;;;;;19.80;94.40;;;;;;5;36018500;41271248;-86
2021/07/29 21:08:21;;;;;;;;;;;19.70;94.80;;;;;;5;36019287;41270588;-87
2021/07/29 21:11:38;;;;;;;;;;;19.70;95.40;;;;;;5;36020125;41271686;-87
2021/07/29 21:14:58;;;;;;;;;;;19.70;95.80;;;;;;5;36018703;41271301;-88
2021/07/29 21:18:17;;;;;;;;;;;19.60;96.50;;;;;;5;36018385;41271225;-88
2021/07/29 21:21:32;;;;;;;;;;;19.60;97.50;;;;;;5;36018087;41271420;-86
2021/07/29 21:24:50;;;;;;;;;;;19.60;98.20;;;;;;5;36016473;42021093;-87
2021/07/29 21:28:10;;;;;;;;;;;19.60;98.70;;;;;;5;36018577;41270331;-87
2021/07/29 21:31:30;;;;;;;;;;;19.60;98.80;;;;;;5;36019801;41270991;-87
2021/07/29 21:34:44;;;;;;;;;;;19.50;99.20;;;;;;5;36018530;41272960;-87
2021/07/29 21:38:01;;;;;;;;;;;19.50;99.40;;;;;;5;36019379;41270215;-88
2021/07/29 21:41:21;;;;;;;;;;;19.50;99.80;;;;;;5;36017193;41270793;-87
2021/07/29 21:44:42;;;;;;;;;;;19.40;99.90;;;;;;5;36019525;41271525;-87
2021/07/29 21:47:56;;;;;;;;;;;19.40;99.90;;;;;;5;36017474;41271911;-87
2021/07/29 21:51:13;;;;;;;;;;;19.40;99.90;;;;;;5;36018147;41271914;-86
2021/07/29 21:54:33;;;;;;;;;;;19.30;99.90;;;;;;5;36017620;41272085;-87
2021/07/29 21:57:54;;;;;;;;;;;19.20;99.90;;;;;;5;36018586;42022719;-87
